Time;durP1;ratioP1;P1;durP2;ratioP2;P2;SDS_P1;SDS_P2;PMS_P1;PMS_P2;Temp;Humidity;BMP_temperature;BMP_pressure;BME280_temperature;BME280_humidity;BME280_pressure;Samples;Min_cycle;Max_cycle;Signal;HPM_P1;HPM_P2
2022/06/11 00:00:38;;;;;;;7.17;3.57;;;13.20;99.90;;;;;;4973765;28;20426;-76
2022/06/11 00:03:03;;;;;;;3.50;3.20;;;13.20;99.90;;;;;;4973802;28;20951;-76
2022/06/11 00:05:29;;;;;;;9.43;3.87;;;13.20;99.90;;;;;;4973392;28;20423;-76
2022/06/11 00:07:54;;;;;;;6.53;2.87;;;13.10;99.90;;;;;;4973646;28;20204;-75
2022/06/11 00:10:20;;;;;;;4.97;4.57;;;13.10;99.90;;;;;;4973528;28;20227;-75
2022/06/11 00:12:46;;;;;;;4.53;3.13;;;13.10;99.90;;;;;;4973588;28;20257;-76
2022/06/11 00:15:11;;;;;;;11.00;3.50;;;13.10;99.90;;;;;;4973417;28;20407;-74
2022/06/11 00:17:38;;;;;;;4.87;2.80;;;13.00;99.90;;;;;;4974285;28;20230;-76
2022/06/11 00:20:05;;;;;;;3.90;3.60;;;13.00;99.90;;;;;;4972243;28;20184;-75
2022/06/11 00:22:30;;;;;;;7.70;4.03;;;12.90;99.90;;;;;;4973463;28;20431;-76
2022/06/11 00:24:56;;;;;;;4.90;3.80;;;12.90;99.90;;;;;;4973858;28;20414;-76
2022/06/11 00:27:21;;;;;;;3.67;3.37;;;12.80;99.90;;;;;;4973786;28;20211;-76
2022/06/11 00:29:48;;;;;;;6.33;3.87;;;12.80;99.90;;;;;;4973745;28;20168;-76
2022/06/11 00:32:15;;;;;;;7.10;3.73;;;12.80;99.90;;;;;;4972881;28;20676;-76
2022/06/11 00:34:42;;;;;;;3.53;3.20;;;12.80;99.90;;;;;;4973312;28;20420;-76
2022/06/11 00:37:08;;;;;;;3.40;3.20;;;12.80;99.90;;;;;;4973463;28;20922;-76
2022/06/11 00:39:36;;;;;;;4.40;4.00;;;12.70;99.90;;;;;;4973323;28;20415;-76
2022/06/11 00:42:12;;;;;;;4.33;4.03;;;12.70;99.90;;;;;;4973206;28;20439;-76
2022/06/11 00:44:39;;;;;;;3.83;3.53;;;12.70;99.90;;;;;;4973184;28;20407;-76
2022/06/11 00:47:14;;;;;;;3.77;3.30;;;12.70;99.90;;;;;;4972902;28;20419;-76
2022/06/11 00:49:52;;;;;;;5.33;4.40;;;12.60;99.90;;;;;;4973067;28;20438;-76
2022/06/11 00:52:24;;;;;;;4.17;3.60;;;12.70;99.90;;;;;;4972709;28;20427;-76
2022/06/11 00:55:16;;;;;;;6.43;3.30;;;12.60;99.90;;;;;;4973029;28;20462;-76
2022/06/11 00:57:52;;;;;;;6.10;4.40;;;12.60;99.90;;;;;;4972999;28;20454;-76
2022/06/11 02:31:00;;;;;;;4.70;3.93;;;11.70;99.90;;;;;;5976764;23;20379;-74
2022/06/11 02:33:29;;;;;;;4.90;4.50;;;11.70;99.90;;;;;;4991312;28;20433;-75
2022/06/11 02:36:00;;;;;;;8.93;4.33;;;11.70;99.90;;;;;;4992664;28;20427;-74
2022/06/11 02:38:27;;;;;;;4.53;4.10;;;11.70;99.90;;;;;;4986020;28;20423;-74
2022/06/11 02:41:00;;;;;;;5.63;3.50;;;11.60;99.90;;;;;;4994677;28;20945;-72
2022/06/11 02:43:27;;;;;;;4.73;3.70;;;11.70;99.90;;;;;;4995010;28;20434;-75
2022/06/11 02:45:53;;;;;;;5.23;4.00;;;11.60;99.90;;;;;;4994828;28;20894;-75
2022/06/11 02:48:20;;;;;;;4.93;3.83;;;11.60;99.90;;;;;;4994496;28;20520;-74
2022/06/11 02:50:46;;;;;;;4.90;3.50;;;11.60;99.90;;;;;;4994490;28;20418;-75
2022/06/11 02:53:13;;;;;;;4.40;3.40;;;11.60;99.90;;;;;;4995379;28;20485;-75
2022/06/11 02:55:40;;;;;;;3.70;3.40;;;11.60;99.90;;;;;;4994830;28;20982;-75
2022/06/11 02:58:09;;;;;;;5.20;4.70;;;11.60;99.90;;;;;;4994759;28;20418;-75
2022/06/11 03:00:40;;;;;;;4.17;3.47;;;11.60;99.90;;;;;;4994572;28;20446;-72
2022/06/11 03:03:07;;;;;;;3.97;3.67;;;11.50;99.90;;;;;;4994723;28;20433;-75
2022/06/11 03:05:35;;;;;;;4.87;4.37;;;11.50;99.90;;;;;;4994606;28;20926;-75
2022/06/11 03:08:01;;;;;;;4.17;3.77;;;11.50;99.90;;;;;;4994567;28;20457;-75
2022/06/11 03:10:28;;;;;;;4.33;3.93;;;11.50;99.90;;;;;;4994278;28;20415;-75
2022/06/11 03:12:54;;;;;;;7.70;4.07;;;11.50;99.90;;;;;;4994308;28;20427;-75
2022/06/11 03:15:21;;;;;;;4.30;4.00;;;11.50;99.90;;;;;;4994523;28;20429;-74
2022/06/11 03:17:48;;;;;;;5.17;4.30;;;11.50;99.90;;;;;;4994425;28;20418;-75
2022/06/11 03:20:15;;;;;;;3.87;3.30;;;11.40;99.90;;;;;;4994197;28;20502;-75
2022/06/11 03:22:41;;;;;;;3.90;3.60;;;11.50;99.90;;;;;;4993946;28;20436;-75
2022/06/11 03:25:08;;;;;;;4.30;3.90;;;11.40;99.90;;;;;;4994515;28;20417;-76
2022/06/11 03:27:34;;;;;;;6.17;3.63;;;11.40;99.90;;;;;;4994151;28;20238;-75
2022/06/11 03:30:00;;;;;;;4.30;3.90;;;11.40;99.90;;;;;;4994440;28;20779;-75
2022/06/11 03:32:26;;;;;;;6.23;4.00;;;11.50;99.90;;;;;;4993787;28;20446;-75
2022/06/11 03:34:51;;;;;;;7.57;5.13;;;11.40;99.90;;;;;;4994326;28;20218;-75
2022/06/11 03:37:18;;;;;;;4.23;3.93;;;11.40;99.90;;;;;;4994433;28;20606;-75
2022/06/11 03:39:44;;;;;;;3.60;3.40;;;11.40;99.90;;;;;;4994392;28;20636;-75
2022/06/11 03:42:09;;;;;;;5.70;4.27;;;11.50;99.90;;;;;;4994929;28;20518;-75
2022/06/11 03:44:35;;;;;;;4.60;3.90;;;11.50;99.90;;;;;;4994898;28;20246;-75
2022/06/11 03:47:01;;;;;;;3.83;3.53;;;11.50;99.90;;;;;;4994819;28;20168;-75
2022/06/11 03:49:27;;;;;;;5.33;3.70;;;11.50;99.90;;;;;;4994628;28;20211;-75
2022/06/11 03:51:52;;;;;;;4.03;3.60;;;11.50;99.90;;;;;;4994130;28;20537;-75
2022/06/11 03:54:18;;;;;;;4.53;4.13;;;11.50;99.90;;;;;;4994119;28;20187;-75
2022/06/11 03:56:47;;;;;;;4.93;4.53;;;11.50;99.90;;;;;;4993815;28;20191;-75
2022/06/11 03:59:12;;;;;;;4.07;3.57;;;11.60;99.90;;;;;;4993997;28;20431;-74
2022/06/11 04:01:39;;;;;;;5.30;3.47;;;11.60;99.90;;;;;;4992525;28;20446;-75
2022/06/11 04:04:09;;;;;;;4.60;4.20;;;11.60;99.90;;;;;;4993428;28;20191;-75
2022/06/11 04:06:40;;;;;;;7.50;4.20;;;11.70;99.90;;;;;;4993159;28;20486;-76
2022/06/11 04:09:09;;;;;;;5.50;4.60;;;11.70;99.90;;;;;;4993259;28;20962;-75
2022/06/11 04:11:35;;;;;;;4.80;4.27;;;11.80;99.90;;;;;;4993086;28;20485;-75
2022/06/11 04:14:01;;;;;;;12.93;4.07;;;11.90;99.90;;;;;;4993202;28;20855;-75
2022/06/11 04:16:35;;;;;;;4.63;3.80;;;11.90;99.90;;;;;;4993059;28;20505;-75
2022/06/11 04:19:04;;;;;;;4.20;3.43;;;11.90;99.90;;;;;;4993204;28;20211;-75
2022/06/11 04:21:32;;;;;;;3.87;3.50;;;12.00;99.90;;;;;;4992762;28;20438;-74
2022/06/11 04:23:58;;;;;;;4.03;3.73;;;12.10;99.90;;;;;;4993169;28;20430;-75
2022/06/11 04:26:29;;;;;;;5.10;4.00;;;12.20;99.90;;;;;;4993067;28;20422;-75
2022/06/11 04:28:55;;;;;;;4.50;4.10;;;12.30;99.90;;;;;;4993121;28;20909;-75
2022/06/11 04:31:22;;;;;;;5.40;3.93;;;12.40;99.90;;;;;;4992588;28;20446;-75
2022/06/11 04:33:49;;;;;;;4.57;4.07;;;12.50;99.90;;;;;;4991616;28;20415;-75
2022/06/11 04:36:17;;;;;;;7.63;5.10;;;12.60;99.90;;;;;;4993276;28;20422;-75
2022/06/11 04:38:44;;;;;;;4.90;3.50;;;12.70;99.90;;;;;;4992709;28;20458;-75
2022/06/11 04:41:10;;;;;;;5.37;4.23;;;12.80;99.90;;;;;;4992459;28;20438;-75
2022/06/11 04:43:35;;;;;;;5.27;3.70;;;13.00;99.90;;;;;;4992589;28;20433;-75
2022/06/11 04:46:02;;;;;;;6.93;4.07;;;13.10;99.90;;;;;;4992943;28;20221;-75
2022/06/11 04:48:27;;;;;;;6.03;4.20;;;13.30;99.90;;;;;;4992488;28;20207;-75
2022/06/11 04:50:53;;;;;;;7.73;4.20;;;13.40;99.90;;;;;;4995115;28;20415;-76
2022/06/11 04:53:19;;;;;;;6.43;3.87;;;13.60;99.90;;;;;;4994872;28;20175;-75
2022/06/11 04:55:45;;;;;;;4.33;3.93;;;13.70;99.90;;;;;;4993293;28;20183;-75
2022/06/11 04:58:12;;;;;;;4.63;4.20;;;13.90;99.90;;;;;;4992702;28;20257;-74
2022/06/11 05:00:37;;;;;;;4.37;3.53;;;14.80;99.90;;;;;;4992064;28;20418;-75
2022/06/11 05:03:04;;;;;;;2.80;2.60;;;17.20;99.90;;;;;;4992879;28;20423;-76
2022/06/11 05:05:31;;;;;;;5.10;2.70;;;19.90;99.90;;;;;;4992364;28;20191;-76
2022/06/11 05:07:57;;;;;;;2.63;2.43;;;22.30;99.90;;;;;;4992298;28;20458;-75
2022/06/11 05:10:25;;;;;;;3.20;2.90;;;23.80;99.90;;;;;;4992106;28;20411;-73
2022/06/11 05:12:51;;;;;;;3.27;2.07;;;24.90;99.90;;;;;;4992213;28;20816;-76
2022/06/11 05:15:17;;;;;;;3.63;2.33;;;26.20;99.90;;;;;;4992348;28;20422;-76
2022/06/11 05:17:42;;;;;;;3.33;1.80;;;26.90;99.90;;;;;;4992188;28;20172;-76
2022/06/11 05:20:09;;;;;;;3.80;2.10;;;27.10;99.90;;;;;;4992275;28;20183;-75
2022/06/11 05:22:35;;;;;;;3.80;2.50;;;27.40;99.90;;;;;;4992374;28;20664;-74
2022/06/11 05:25:01;;;;;;;5.50;2.83;;;27.40;99.90;;;;;;4992777;28;20425;-74
2022/06/11 05:27:27;;;;;;;4.20;2.40;;;27.40;99.90;;;;;;4992605;28;20427;-74
2022/06/11 05:29:52;;;;;;;5.20;2.53;;;27.50;99.90;;;;;;4991399;28;20225;-74
2022/06/11 05:32:21;;;;;;;2.33;2.20;;;27.90;99.90;;;;;;4992306;28;20203;-74
2022/06/11 05:34:47;;;;;;;2.30;2.10;;;27.70;99.90;;;;;;4992704;28;20360;-74
2022/06/11 05:37:14;;;;;;;2.80;2.53;;;27.70;99.90;;;;;;4992574;28;20415;-74
2022/06/11 05:39:42;;;;;;;2.80;2.17;;;27.10;99.90;;;;;;4992528;28;20422;-75
2022/06/11 05:42:08;;;;;;;2.80;2.00;;;26.20;99.90;;;;;;4992379;28;20430;-74
2022/06/11 05:44:33;;;;;;;2.73;2.47;;;25.80;99.90;;;;;;4992485;28;20571;-74
2022/06/11 05:46:59;;;;;;;2.40;2.20;;;25.50;99.90;;;;;;4992576;28;20963;-74
2022/06/11 05:49:32;;;;;;;2.93;2.70;;;25.00;99.90;;;;;;4992334;28;20242;-74
2022/06/11 05:52:01;;;;;;;6.13;2.83;;;24.90;99.90;;;;;;4991807;28;20183;-72
2022/06/11 05:54:31;;;;;;;5.20;2.30;;;24.30;99.90;;;;;;4991547;28;20438;-72
2022/06/11 05:56:57;;;;;;;4.33;2.20;;;23.70;99.90;;;;;;4992225;28;20420;-73
2022/06/11 05:59:29;;;;;;;2.93;2.20;;;23.70;99.90;;;;;;4992346;28;20933;-72
2022/06/11 06:01:56;;;;;;;2.63;2.33;;;23.70;99.90;;;;;;4991944;28;20877;-73
2022/06/11 06:04:21;;;;;;;3.63;2.50;;;23.90;99.90;;;;;;4994942;28;20433;-72
2022/06/11 06:06:47;;;;;;;2.67;1.97;;;23.80;99.90;;;;;;4995804;28;20493;-73
2022/06/11 06:09:12;;;;;;;3.97;2.50;;;23.90;99.90;;;;;;4995753;28;20282;-73
2022/06/11 06:11:38;;;;;;;1.90;1.70;;;23.80;99.90;;;;;;4995366;28;20672;-72
2022/06/11 06:14:04;;;;;;;2.07;1.90;;;23.80;99.90;;;;;;4995499;28;20176;-72
2022/06/11 06:16:30;;;;;;;2.33;2.13;;;23.60;99.90;;;;;;4995467;28;20468;-72
2022/06/11 06:18:57;;;;;;;4.10;2.57;;;23.60;99.90;;;;;;4994428;28;20215;-72
2022/06/11 06:21:26;;;;;;;2.10;1.90;;;23.60;99.90;;;;;;4995255;28;20434;-75
2022/06/11 06:23:52;;;;;;;2.20;2.00;;;23.90;99.90;;;;;;4995280;28;20422;-76
2022/06/11 06:26:18;;;;;;;2.33;2.00;;;24.00;99.90;;;;;;4995156;28;20799;-77
2022/06/11 06:28:44;;;;;;;2.83;1.93;;;24.40;99.90;;;;;;4994869;28;20457;-76
2022/06/11 06:31:12;;;;;;;2.23;2.00;;;24.60;99.90;;;;;;4994930;28;20293;-75
2022/06/11 06:33:38;;;;;;;2.73;2.53;;;24.90;99.90;;;;;;4994982;28;20622;-75
2022/06/11 06:36:05;;;;;;;4.00;2.20;;;25.20;99.90;;;;;;4995402;28;20406;-75
2022/06/11 06:38:32;;;;;;;2.87;2.67;;;25.20;99.90;;;;;;4994812;28;20410;-75
2022/06/11 06:40:57;;;;;;;6.20;2.23;;;25.30;99.90;;;;;;4994916;28;20517;-75
2022/06/11 06:43:23;;;;;;;2.20;2.00;;;25.40;99.90;;;;;;4994856;28;20998;-76
2022/06/11 06:45:49;;;;;;;2.10;2.00;;;25.10;99.90;;;;;;4995220;28;20179;-75
2022/06/11 06:48:16;;;;;;;2.23;2.10;;;25.20;99.90;;;;;;4995070;28;20563;-76
2022/06/11 06:50:41;;;;;;;3.00;2.80;;;25.20;99.90;;;;;;4994354;28;20180;-75
2022/06/11 06:53:07;;;;;;;2.13;2.03;;;25.60;99.90;;;;;;4994072;28;20771;-75
2022/06/11 06:55:33;;;;;;;2.30;2.10;;;26.00;99.90;;;;;;4978394;28;20181;-75
2022/06/11 06:57:58;;;;;;;1.80;1.70;;;26.20;99.90;;;;;;4975061;28;20274;-76
2022/06/11 07:00:24;;;;;;;2.13;1.90;;;26.20;99.90;;;;;;4974754;28;20184;-72
2022/06/11 07:02:53;;;;;;;4.33;1.73;;;26.20;99.90;;;;;;4974917;28;20280;-75
2022/06/11 07:05:19;;;;;;;4.07;1.70;;;26.40;99.90;;;;;;4994163;28;20947;-75
2022/06/11 07:07:48;;;;;;;2.50;1.97;;;26.60;99.90;;;;;;4994336;28;20469;-76
2022/06/11 07:10:15;;;;;;;2.20;2.00;;;26.90;99.90;;;;;;4994599;28;20644;-75
2022/06/11 07:12:40;;;;;;;2.40;1.77;;;27.10;99.90;;;;;;4994135;28;20828;-75
2022/06/11 07:15:06;;;;;;;2.67;1.80;;;27.30;99.90;;;;;;4994423;28;20415;-75
2022/06/11 07:17:42;;;;;;;3.40;1.80;;;27.20;99.90;;;;;;4994202;28;20656;-75
2022/06/11 07:20:20;;;;;;;5.37;2.20;;;27.40;99.90;;;;;;4994327;28;20416;-75
2022/06/11 07:22:49;;;;;;;6.70;2.10;;;27.50;99.90;;;;;;4993977;28;20471;-74
2022/06/11 07:25:15;;;;;;;2.70;1.67;;;27.70;99.90;;;;;;4974867;28;20551;-75
2022/06/11 07:27:45;;;;;;;3.23;1.07;;;27.80;99.90;;;;;;4974086;28;20977;-75
2022/06/11 07:30:15;;;;;;;3.50;1.93;;;27.80;99.90;;;;;;4974415;28;20176;-75
2022/06/11 07:32:44;;;;;;;2.57;1.83;;;27.70;99.90;;;;;;4976569;28;20550;-75
2022/06/11 07:35:13;;;;;;;4.00;2.87;;;27.20;99.90;;;;;;4976904;28;20412;-75
2022/06/11 07:37:40;;;;;;;3.53;1.90;;;27.40;99.90;;;;;;4974994;28;20765;-75
2022/06/11 07:40:07;;;;;;;7.33;1.77;;;27.80;99.90;;;;;;4974395;28;20415;-75
2022/06/11 07:42:32;;;;;;;6.27;1.40;;;27.90;99.90;;;;;;4973818;28;20439;-76
2022/06/11 07:44:58;;;;;;;2.43;1.97;;;28.00;99.90;;;;;;4974284;28;20423;-76
2022/06/11 07:50:11;;;;;;;5.63;1.33;;;28.20;99.90;;;;;;4974087;28;20700;-76
2022/06/11 07:52:37;;;;;;;3.53;1.70;;;28.20;99.90;;;;;;4973345;28;20443;-76
2022/06/11 07:55:04;;;;;;;1.70;1.27;;;28.40;99.90;;;;;;4974345;28;20423;-75
2022/06/11 07:57:29;;;;;;;4.77;1.13;;;28.60;99.90;;;;;;4973662;28;20451;-75
2022/06/11 07:59:55;;;;;;;2.40;1.60;;;28.50;99.90;;;;;;4973921;28;20442;-75
2022/06/11 08:02:20;;;;;;;4.90;1.23;;;28.90;99.90;;;;;;4973430;28;20199;-75
2022/06/11 08:04:46;;;;;;;2.60;1.20;;;29.20;99.90;;;;;;4985880;28;20233;-75
2022/06/11 08:07:11;;;;;;;1.93;1.50;;;29.40;99.90;;;;;;4993286;28;20172;-75
2022/06/11 08:09:37;;;;;;;2.70;1.80;;;29.70;99.90;;;;;;4992989;28;20667;-75
2022/06/11 08:12:02;;;;;;;3.43;1.40;;;29.40;99.90;;;;;;4993165;28;20195;-75
2022/06/11 08:14:28;;;;;;;2.50;1.17;;;29.80;99.90;;;;;;4993289;28;20175;-75
2022/06/11 08:16:54;;;;;;;2.33;1.60;;;29.90;99.90;;;;;;4993273;28;20175;-76
2022/06/11 08:19:19;;;;;;;4.20;1.50;;;30.10;99.90;;;;;;4992987;28;20179;-75
2022/06/11 08:21:44;;;;;;;2.50;1.60;;;30.10;99.90;;;;;;4992458;28;20200;-76
2022/06/11 08:24:10;;;;;;;2.60;1.33;;;30.10;99.90;;;;;;4992637;28;20179;-74
2022/06/11 08:26:37;;;;;;;2.87;1.73;;;30.20;99.90;;;;;;4992156;28;20255;-75
2022/06/11 08:29:02;;;;;;;2.30;1.80;;;30.20;99.70;;;;;;4992580;28;20293;-76
2022/06/11 08:31:28;;;;;;;4.03;1.63;;;30.10;99.90;;;;;;4992202;28;20905;-75
2022/06/11 08:33:53;;;;;;;2.03;1.70;;;30.40;99.90;;;;;;4992987;28;20175;-76
2022/06/11 08:36:19;;;;;;;1.87;1.47;;;30.60;99.90;;;;;;4993108;28;20175;-76
2022/06/11 08:38:44;;;;;;;4.90;1.30;;;30.80;99.20;;;;;;4992667;28;20266;-75
2022/06/11 08:41:15;;;;;;;6.83;1.60;;;31.00;99.90;;;;;;4992377;28;20258;-75
2022/06/11 08:43:48;;;;;;;2.87;1.60;;;31.20;99.10;;;;;;4992368;28;20558;-76
2022/06/11 08:46:18;;;;;;;4.00;1.53;;;31.30;99.30;;;;;;4991360;28;20434;-76
2022/06/11 08:49:08;;;;;;;2.17;1.27;;;31.60;99.90;;;;;;4992053;28;20466;-76
2022/06/11 08:51:42;;;;;;;3.10;1.10;;;32.10;97.80;;;;;;4991836;28;20438;-76
2022/06/11 08:54:15;;;;;;;4.47;1.40;;;31.90;97.20;;;;;;4992425;28;20415;-75
2022/06/11 08:56:44;;;;;;;3.60;1.10;;;31.80;95.90;;;;;;4992034;28;20411;-76
2022/06/11 08:59:24;;;;;;;2.77;1.70;;;32.10;96.10;;;;;;4992245;28;20510;-75
2022/06/11 09:02:02;;;;;;;4.13;1.60;;;32.40;96.70;;;;;;4991950;28;20805;-75
2022/06/11 09:04:54;;;;;;;1.97;1.37;;;32.80;95.50;;;;;;4991603;28;20410;-75
2022/06/11 09:07:32;;;;;;;3.70;1.10;;;32.70;94.80;;;;;;4992186;28;20763;-75
2022/06/11 09:10:41;;;;;;;2.57;1.20;;;32.30;94.00;;;;;;4992268;28;20442;-75
2022/06/11 09:13:28;;;;;;;2.40;1.53;;;32.40;94.10;;;;;;4992492;28;20903;-75
2022/06/11 09:16:50;;;;;;;4.93;1.50;;;32.60;93.20;;;;;;4992058;28;20891;-75
2022/06/11 09:19:34;;;;;;;4.00;1.43;;;32.20;95.20;;;;;;4992156;28;20414;-75
2022/06/11 09:22:02;;;;;;;3.53;1.50;;;31.90;94.20;;;;;;4991698;28;20489;-75
2022/06/11 09:24:38;;;;;;;5.53;1.37;;;32.10;94.60;;;;;;4991859;28;20406;-75
2022/06/11 09:27:13;;;;;;;3.50;1.27;;;32.60;94.30;;;;;;4992078;28;20815;-76
2022/06/11 09:29:56;;;;;;;4.30;1.20;;;32.40;92.50;;;;;;4991666;28;20483;-76
2022/06/11 09:32:27;;;;;;;4.30;1.13;;;33.00;94.00;;;;;;4991502;28;20469;-74
2022/06/11 09:35:08;;;;;;;1.80;1.20;;;33.40;91.90;;;;;;4992011;28;20421;-76
2022/06/11 09:37:55;;;;;;;1.80;1.00;;;33.70;90.60;;;;;;4991848;28;20411;-76
2022/06/11 09:40:41;;;;;;;4.00;1.37;;;33.40;90.00;;;;;;4995774;28;20421;-76
2022/06/11 09:43:29;;;;;;;3.73;2.03;;;32.80;90.30;;;;;;4995725;28;20829;-75
2022/06/11 09:46:05;;;;;;;4.23;1.43;;;33.00;91.80;;;;;;4995802;28;20403;-75
2022/06/11 09:48:38;;;;;;;5.33;1.17;;;33.10;91.90;;;;;;4994169;28;21057;-75
2022/06/11 09:51:34;;;;;;;2.83;1.60;;;33.50;91.70;;;;;;4995476;28;20517;-75
2022/06/11 09:54:28;;;;;;;5.03;1.67;;;33.40;91.70;;;;;;4995468;28;20453;-76
2022/06/11 09:57:19;;;;;;;2.77;1.20;;;33.20;90.60;;;;;;4995568;28;20424;-76
2022/06/11 09:59:52;;;;;;;5.17;1.50;;;33.30;90.50;;;;;;4995253;28;20937;-76
2022/06/11 10:05:25;;;;;;;2.47;1.73;;;32.70;88.70;;;;;;4994895;28;20966;-78
2022/06/11 10:08:01;;;;;;;1.63;1.43;;;32.70;89.00;;;;;;4997557;28;20477;-76
2022/06/11 10:10:31;;;;;;;1.80;1.13;;;32.10;90.30;;;;;;4996930;28;20429;-76
2022/06/11 10:13:14;;;;;;;3.30;1.70;;;32.60;91.60;;;;;;4995967;28;20457;-78
2022/06/11 10:15:42;;;;;;;3.80;1.30;;;32.40;87.40;;;;;;4995465;28;20902;-74
2022/06/11 10:18:25;;;;;;;4.87;1.97;;;32.10;88.10;;;;;;4995235;28;20410;-75
2022/06/11 10:20:56;;;;;;;9.10;4.70;;;32.50;89.30;;;;;;4994659;28;20411;-75
2022/06/11 10:23:30;;;;;;;5.27;2.60;;;32.80;89.30;;;;;;4993935;28;20430;-75
2022/06/11 10:26:02;;;;;;;4.10;1.27;;;33.20;88.40;;;;;;4993567;28;20417;-75
2022/06/11 10:28:49;;;;;;;3.57;2.17;;;33.40;89.40;;;;;;4992948;28;20466;-76
2022/06/11 10:31:20;;;;;;;3.40;3.10;;;33.70;90.60;;;;;;4993930;28;20966;-75
2022/06/11 10:34:23;;;;;;;3.67;2.43;;;33.70;87.40;;;;;;4994675;28;20415;-76
2022/06/11 10:37:07;;;;;;;2.80;2.07;;;33.60;86.80;;;;;;4994454;28;20422;-76
2022/06/11 10:39:59;;;;;;;3.80;1.83;;;34.20;88.60;;;;;;4994605;28;20927;-75
2022/06/11 10:42:44;;;;;;;1.97;1.43;;;33.80;87.00;;;;;;4993872;28;20454;-76
2022/06/11 10:45:14;;;;;;;5.73;1.63;;;33.40;85.10;;;;;;4993372;28;20525;-76
2022/06/11 10:47:45;;;;;;;2.60;2.00;;;33.00;83.20;;;;;;4994543;28;20430;-76
2022/06/11 10:50:11;;;;;;;3.33;1.93;;;32.50;83.70;;;;;;4994178;28;20478;-76
2022/06/11 10:53:07;;;;;;;4.50;1.70;;;31.70;84.80;;;;;;4994417;28;21030;-76
2022/06/11 10:55:45;;;;;;;1.83;1.50;;;31.40;85.90;;;;;;4994566;28;20510;-75
2022/06/11 10:58:25;;;;;;;2.63;1.90;;;31.30;88.90;;;;;;4994557;28;20412;-75
2022/06/11 11:01:07;;;;;;;2.13;1.60;;;30.90;86.80;;;;;;4994057;28;20414;-76
2022/06/11 11:03:39;;;;;;;3.30;1.50;;;30.50;88.70;;;;;;4994261;28;20414;-73
2022/06/11 11:06:15;;;;;;;2.70;1.30;;;29.90;90.00;;;;;;4993894;28;20501;-74
2022/06/11 11:08:53;;;;;;;2.47;1.33;;;29.00;89.40;;;;;;4993978;28;21041;-74
2022/06/11 11:11:19;;;;;;;2.93;1.90;;;29.30;91.70;;;;;;4993930;28;20434;-75
2022/06/11 11:13:46;;;;;;;6.70;2.40;;;29.60;90.20;;;;;;4993993;28;20417;-74
2022/06/11 11:16:11;;;;;;;1.60;1.50;;;29.60;90.50;;;;;;4994231;28;20415;-74
2022/06/11 11:19:04;;;;;;;2.47;1.43;;;30.10;91.30;;;;;;4994509;28;20426;-75
2022/06/11 11:21:49;;;;;;;2.60;1.57;;;30.60;90.90;;;;;;4993533;28;20667;-75
2022/06/11 11:24:22;;;;;;;6.40;1.70;;;31.20;90.80;;;;;;4993984;28;20406;-74
2022/06/11 11:26:56;;;;;;;2.40;1.53;;;30.90;89.90;;;;;;4993879;28;20527;-75
2022/06/11 11:29:26;;;;;;;2.90;1.83;;;31.10;91.00;;;;;;4992276;28;20564;-75
2022/06/11 11:31:57;;;;;;;3.97;2.10;;;31.70;90.50;;;;;;4993492;28;20458;-74
2022/06/11 11:34:25;;;;;;;4.53;1.57;;;31.60;91.00;;;;;;4993727;28;20425;-75
2022/06/11 11:37:13;;;;;;;2.00;1.83;;;31.60;90.30;;;;;;4993534;28;20426;-75
2022/06/11 11:39:50;;;;;;;4.43;1.63;;;31.50;90.40;;;;;;4993383;28;20730;-75
2022/06/11 11:42:25;;;;;;;7.13;1.80;;;31.20;90.70;;;;;;4993259;28;20429;-75
2022/06/11 11:44:57;;;;;;;2.53;1.70;;;30.80;91.90;;;;;;4993663;28;20468;-75
2022/06/11 11:47:39;;;;;;;2.00;1.57;;;30.60;91.00;;;;;;4993446;28;20961;-75
2022/06/11 11:50:11;;;;;;;4.70;1.97;;;30.50;91.90;;;;;;4993894;28;20417;-75
2022/06/11 11:52:55;;;;;;;2.17;1.50;;;30.60;91.30;;;;;;4992938;28;20438;-75
2022/06/11 11:55:37;;;;;;;2.77;1.60;;;30.60;90.10;;;;;;4993435;28;20410;-75
2022/06/11 11:58:15;;;;;;;1.90;1.70;;;30.50;91.00;;;;;;4993629;28;20495;-75
2022/06/11 12:01:02;;;;;;;2.60;2.20;;;30.20;92.20;;;;;;4991967;28;20453;-76
2022/06/11 12:03:45;;;;;;;7.57;2.03;;;29.80;91.30;;;;;;4992996;28;20421;-75
2022/06/11 12:06:15;;;;;;;3.30;1.77;;;29.70;92.30;;;;;;4992857;28;20705;-75
2022/06/11 12:08:50;;;;;;;2.73;2.07;;;29.70;92.90;;;;;;4992785;28;20540;-75
2022/06/11 12:11:25;;;;;;;2.27;1.40;;;29.40;92.80;;;;;;4994008;28;20422;-75
2022/06/11 12:13:54;;;;;;;2.30;1.90;;;29.30;93.90;;;;;;4994100;28;20419;-75
2022/06/11 12:16:37;;;;;;;4.63;2.00;;;29.40;92.20;;;;;;4993467;28;20421;-75
2022/06/11 12:19:11;;;;;;;2.50;1.50;;;29.30;92.80;;;;;;4993899;28;20461;-75
2022/06/11 12:21:42;;;;;;;2.70;1.60;;;29.40;93.60;;;;;;4993654;28;20430;-75
2022/06/11 12:24:26;;;;;;;1.97;1.83;;;29.60;92.80;;;;;;4992996;28;20839;-75
2022/06/11 12:26:58;;;;;;;4.60;1.70;;;29.80;92.30;;;;;;4992821;28;20411;-74
2022/06/11 12:29:47;;;;;;;2.50;1.70;;;29.70;91.60;;;;;;4992657;28;20501;-75
2022/06/11 12:32:17;;;;;;;2.00;1.70;;;29.30;93.00;;;;;;4992364;28;20450;-74
2022/06/11 12:34:43;;;;;;;3.93;2.07;;;29.40;91.90;;;;;;4992804;28;20770;-75
2022/06/11 12:37:37;;;;;;;4.47;2.50;;;29.20;91.80;;;;;;4993003;28;20407;-75
2022/06/11 12:40:23;;;;;;;5.07;1.90;;;29.10;91.50;;;;;;4981700;28;20270;-75
2022/06/11 12:43:13;;;;;;;1.83;1.73;;;28.90;92.10;;;;;;4992267;28;20461;-76
2022/06/11 12:45:49;;;;;;;3.93;2.83;;;29.00;92.10;;;;;;4994998;28;20407;-75
2022/06/11 12:48:24;;;;;;;2.13;1.93;;;29.20;92.90;;;;;;4994873;28;20523;-76
2022/06/11 12:51:11;;;;;;;4.77;1.57;;;29.30;91.70;;;;;;4992168;28;20421;-72
2022/06/11 12:53:45;;;;;;;3.33;1.70;;;29.60;91.90;;;;;;4992100;28;20498;-75
2022/06/11 12:56:17;;;;;;;1.70;1.60;;;29.70;92.90;;;;;;4992483;28;20779;-75
2022/06/11 12:59:04;;;;;;;2.23;2.00;;;29.40;90.80;;;;;;4992197;28;20407;-75
2022/06/11 13:01:37;;;;;;;1.63;1.47;;;29.50;93.50;;;;;;4991838;28;20429;-75
2022/06/11 13:04:16;;;;;;;3.07;1.60;;;29.30;91.60;;;;;;4991003;28;20919;-75
2022/06/11 13:07:06;;;;;;;4.10;2.60;;;29.30;93.00;;;;;;4991603;28;20449;-75
2022/06/11 13:09:42;;;;;;;7.43;2.07;;;29.30;92.80;;;;;;4991808;28;20470;-75
2022/06/11 13:12:16;;;;;;;4.10;1.97;;;29.20;92.50;;;;;;4990608;28;20438;-76
2022/06/11 13:15:00;;;;;;;3.30;2.30;;;28.90;91.50;;;;;;4991811;28;20429;-76
2022/06/11 13:18:03;;;;;;;3.43;2.00;;;28.60;92.10;;;;;;4991946;28;20460;-76
2022/06/11 13:20:41;;;;;;;4.10;2.03;;;28.50;91.70;;;;;;4990671;28;20449;-75
2022/06/11 13:23:24;;;;;;;7.37;1.80;;;28.50;91.80;;;;;;4992163;28;20411;-75
2022/06/11 13:26:38;;;;;;;4.03;2.30;;;28.60;93.00;;;;;;4992091;28;20433;-76
2022/06/11 13:29:38;;;;;;;3.53;1.40;;;28.70;92.10;;;;;;4983546;28;20478;-75
2022/06/11 13:32:31;;;;;;;1.80;1.70;;;28.70;92.20;;;;;;4991767;28;20458;-76
2022/06/11 13:35:06;;;;;;;2.87;2.13;;;28.60;93.20;;;;;;4992048;28;20434;-76
2022/06/11 13:37:37;;;;;;;2.83;2.50;;;28.80;92.70;;;;;;4992162;28;20410;-76
2022/06/11 13:40:20;;;;;;;4.10;1.87;;;28.70;93.40;;;;;;4991891;28;20783;-76
2022/06/11 13:42:57;;;;;;;2.40;2.20;;;28.70;92.90;;;;;;4991824;28;20481;-74
2022/06/11 13:45:53;;;;;;;5.53;2.90;;;28.50;92.20;;;;;;4992146;28;20415;-76
2022/06/11 13:48:56;;;;;;;5.30;2.40;;;28.30;93.90;;;;;;4990592;28;20485;-75
2022/06/11 13:51:29;;;;;;;5.60;2.20;;;28.50;93.90;;;;;;4991630;28;20426;-75
2022/06/11 13:56:52;;;;;;;2.10;1.90;;;28.70;93.70;;;;;;4992057;28;20452;-76
2022/06/11 13:59:37;;;;;;;2.20;1.87;;;28.90;94.80;;;;;;4991816;28;20823;-76
2022/06/11 14:02:33;;;;;;;3.20;2.23;;;28.90;93.00;;;;;;4991787;28;20430;-75
2022/06/11 14:05:02;;;;;;;3.13;2.00;;;28.70;93.40;;;;;;4988443;28;20422;-76
2022/06/11 14:07:30;;;;;;;2.13;1.63;;;28.80;92.90;;;;;;4991765;28;20477;-76
2022/06/11 14:10:21;;;;;;;6.43;2.37;;;28.70;93.30;;;;;;4991751;28;20433;-76
2022/06/11 14:13:07;;;;;;;2.37;1.67;;;28.60;93.80;;;;;;4991646;28;20779;-75
2022/06/11 14:15:51;;;;;;;2.53;2.03;;;28.50;93.40;;;;;;4991488;28;20406;-76
2022/06/11 14:18:36;;;;;;;3.77;1.70;;;28.30;93.40;;;;;;4991720;28;20417;-76
2022/06/11 14:21:45;;;;;;;3.40;2.17;;;28.40;93.60;;;;;;4991102;28;20461;-76
2022/06/11 14:24:31;;;;;;;5.60;2.60;;;28.50;94.00;;;;;;4970780;28;20860;-75
2022/06/11 14:26:57;;;;;;;2.13;1.90;;;28.70;94.80;;;;;;4993963;28;20426;-75
2022/06/11 14:29:31;;;;;;;4.67;2.00;;;28.80;94.40;;;;;;4994956;28;20457;-75
2022/06/11 14:32:25;;;;;;;4.83;2.40;;;28.60;93.70;;;;;;4994720;28;20235;-76
2022/06/11 14:35:15;;;;;;;2.53;2.30;;;28.60;94.50;;;;;;4993696;28;20457;-75
2022/06/11 14:37:41;;;;;;;5.37;2.40;;;28.70;94.50;;;;;;4993472;28;21226;-75
2022/06/11 14:40:32;;;;;;;2.07;1.90;;;28.70;96.00;;;;;;4994909;28;20438;-76
2022/06/11 14:42:58;;;;;;;6.53;2.03;;;28.40;94.80;;;;;;4994810;28;20442;-75
2022/06/11 14:45:35;;;;;;;3.67;2.00;;;28.40;94.70;;;;;;4994976;28;20414;-75
2022/06/11 14:48:03;;;;;;;4.10;2.40;;;28.30;95.00;;;;;;4994662;28;20199;-76
2022/06/11 14:50:44;;;;;;;5.63;2.63;;;28.30;95.60;;;;;;4994486;28;20469;-75
2022/06/11 14:53:41;;;;;;;3.30;1.90;;;28.10;96.10;;;;;;4994925;28;20406;-75
2022/06/11 14:56:18;;;;;;;4.80;2.20;;;27.80;96.30;;;;;;4994677;28;20473;-76